Time;durP1;ratioP1;P1;durP2;ratioP2;P2;SDS_P1;SDS_P2;PMS_P1;PMS_P2;Temp;Humidity;BMP_temperature;BMP_pressure;BME280_temperature;BME280_humidity;BME280_pressure;Samples;Min_cycle;Max_cycle;Signal;HPM_P1;HPM_P2
2022/12/21 00:01:20;;;;;;;80.85;32.35;;;7.60;99.90;;;;;;4987410;28;20046;-65
2022/12/21 00:03:46;;;;;;;85.78;33.40;;;7.60;99.90;;;;;;4985152;28;20375;-65
2022/12/21 00:06:12;;;;;;;89.25;32.97;;;8.00;99.90;;;;;;4975163;28;20455;-66
2022/12/21 00:08:41;;;;;;;86.47;33.38;;;7.50;99.90;;;;;;4967806;28;20043;-66
2022/12/21 00:11:08;;;;;;;86.07;32.40;;;7.90;99.90;;;;;;4968007;28;20529;-64
2022/12/21 00:13:34;;;;;;;88.15;32.75;;;7.50;99.90;;;;;;4966797;28;20178;-66
2022/12/21 00:16:05;;;;;;;85.65;31.55;;;7.60;99.90;;;;;;4967347;28;20437;-64
2022/12/21 00:18:35;;;;;;;87.43;31.60;;;7.80;99.90;;;;;;4966560;28;20070;-66
2022/12/21 00:21:06;;;;;;;84.10;31.58;;;7.80;99.90;;;;;;4967496;28;20074;-66
2022/12/21 00:23:32;;;;;;;81.40;29.15;;;7.80;99.90;;;;;;4968063;28;20042;-66
2022/12/21 00:25:59;;;;;;;84.78;31.00;;;7.40;99.90;;;;;;4969570;28;20402;-65
2022/12/21 00:28:25;;;;;;;82.07;30.05;;;7.80;99.90;;;;;;4971395;28;20043;-66
2022/12/21 00:30:51;;;;;;;71.90;29.48;;;7.80;99.90;;;;;;4970548;28;20382;-65
2022/12/21 00:33:17;;;;;;;88.32;30.40;;;7.50;99.90;;;;;;4970863;28;20043;-66
2022/12/21 00:35:50;;;;;;;85.25;30.05;;;7.70;99.90;;;;;;4970215;28;20482;-65
2022/12/21 00:38:16;;;;;;;79.40;29.90;;;7.70;99.90;;;;;;4971427;28;20410;-66
2022/12/21 00:40:43;;;;;;;87.43;31.00;;;7.40;99.90;;;;;;4971521;28;20049;-64
2022/12/21 00:43:09;;;;;;;89.93;31.50;;;7.70;99.90;;;;;;4971497;28;20469;-66
2022/12/21 00:45:35;;;;;;;94.20;29.92;;;7.30;99.90;;;;;;4972020;28;20046;-66
2022/12/21 00:48:00;;;;;;;86.28;29.60;;;7.30;99.90;;;;;;4970793;28;20038;-66
2022/12/21 00:50:26;;;;;;;94.60;30.60;;;7.20;99.90;;;;;;4970485;28;20059;-65
2022/12/21 00:52:52;;;;;;;96.47;29.00;;;7.30;99.90;;;;;;4971630;28;20038;-66
2022/12/21 00:55:18;;;;;;;108.38;33.08;;;7.50;99.90;;;;;;4971111;28;20462;-65
2022/12/21 00:57:43;;;;;;;104.95;33.38;;;7.60;99.90;;;;;;4970922;28;20626;-65
2022/12/21 01:00:10;;;;;;;99.38;32.58;;;7.60;99.90;;;;;;4969797;28;20109;-65
2022/12/21 01:02:36;;;;;;;104.85;32.72;;;7.20;99.90;;;;;;4971025;28;20070;-65
2022/12/21 01:05:02;;;;;;;89.20;30.73;;;7.50;99.90;;;;;;4978036;28;20052;-66
2022/12/21 01:07:28;;;;;;;97.95;31.90;;;7.20;99.90;;;;;;4973076;28;20073;-64
2022/12/21 01:09:54;;;;;;;84.03;29.63;;;7.20;99.90;;;;;;4971138;28;20082;-66
2022/12/21 01:12:19;;;;;;;97.15;30.95;;;7.20;99.90;;;;;;4970274;28;20137;-65
2022/12/21 01:14:45;;;;;;;115.43;35.00;;;7.40;99.90;;;;;;4985977;28;20045;-64
2022/12/21 01:17:11;;;;;;;183.10;38.53;;;7.10;99.90;;;;;;4970374;28;20051;-66
2022/12/21 01:19:36;;;;;;;144.23;36.00;;;7.00;99.90;;;;;;4971406;28;20491;-63
2022/12/21 01:22:02;;;;;;;292.48;41.13;;;7.30;99.90;;;;;;4970936;28;20047;-66
2022/12/21 01:24:28;;;;;;;315.38;42.60;;;6.90;99.90;;;;;;4970367;28;20053;-65
2022/12/21 01:26:53;;;;;;;246.18;40.53;;;7.10;99.90;;;;;;4970666;28;20046;-65
2022/12/21 01:29:19;;;;;;;162.02;34.83;;;7.10;99.90;;;;;;4970726;28;20422;-66
2022/12/21 01:31:45;;;;;;;150.35;33.88;;;7.00;99.90;;;;;;4969656;28;20090;-65
2022/12/21 01:34:10;;;;;;;169.75;34.92;;;7.10;99.90;;;;;;4969342;28;20170;-65
2022/12/21 01:36:36;;;;;;;209.02;35.05;;;7.00;99.90;;;;;;4969826;28;20055;-65
2022/12/21 01:39:02;;;;;;;281.67;39.85;;;6.70;99.90;;;;;;4970501;28;20043;-65
2022/12/21 01:41:28;;;;;;;116.60;30.65;;;6.70;99.90;;;;;;4974296;28;20112;-66
2022/12/21 01:44:02;;;;;;;201.90;32.83;;;7.00;99.90;;;;;;4988540;28;20490;-66
2022/12/21 01:46:40;;;;;;;234.50;32.63;;;6.90;99.90;;;;;;4988843;28;20097;-66
2022/12/21 01:49:25;;;;;;;178.23;30.55;;;7.00;99.90;;;;;;4990102;28;20426;-65
2022/12/21 01:52:04;;;;;;;117.60;29.67;;;6.90;99.90;;;;;;4988842;28;20065;-66
2022/12/21 01:54:44;;;;;;;297.52;34.95;;;6.70;99.90;;;;;;4988061;28;20046;-64
2022/12/21 01:57:12;;;;;;;184.27;30.75;;;6.70;99.90;;;;;;4987380;28;20127;-65
2022/12/21 01:59:43;;;;;;;268.77;32.80;;;6.70;99.90;;;;;;4990026;28;20465;-66
2022/12/21 02:02:17;;;;;;;180.73;30.25;;;6.80;99.90;;;;;;4988282;28;20042;-66
2022/12/21 02:04:44;;;;;;;246.90;32.92;;;6.80;99.90;;;;;;4983205;28;20054;-66
2022/12/21 02:07:10;;;;;;;214.75;30.38;;;6.60;99.90;;;;;;4975257;28;20047;-66
2022/12/21 02:09:36;;;;;;;175.43;29.25;;;6.80;99.90;;;;;;4970141;28;20129;-65
2022/12/21 02:12:07;;;;;;;120.75;24.58;;;6.60;99.90;;;;;;4969354;28;20067;-66
2022/12/21 02:14:37;;;;;;;153.38;27.60;;;6.60;99.90;;;;;;4969829;28;20101;-66
2022/12/21 02:17:54;;;;;;;175.88;27.20;;;6.70;99.90;;;;;;4969241;28;20046;-66
2022/12/21 02:20:42;;;;;;;204.10;29.45;;;6.60;99.90;;;;;;4989060;28;20065;-65
2022/12/21 02:23:41;;;;;;;222.18;31.98;;;6.60;99.90;;;;;;4968583;28;20066;-66
2022/12/21 02:26:25;;;;;;;350.13;35.83;;;6.60;99.90;;;;;;4967896;28;20058;-65
2022/12/21 02:29:12;;;;;;;227.70;34.08;;;6.70;99.90;;;;;;4968913;28;20109;-65
2022/12/21 02:31:56;;;;;;;126.38;30.95;;;6.50;99.90;;;;;;4968998;28;20069;-67
2022/12/21 02:34:44;;;;;;;174.75;30.48;;;6.50;99.90;;;;;;4969011;28;20042;-66
2022/12/21 02:37:33;;;;;;;155.00;29.23;;;6.70;99.90;;;;;;4969173;28;20050;-66
2022/12/21 02:40:22;;;;;;;185.57;30.65;;;6.60;99.90;;;;;;4969810;28;20442;-66
2022/12/21 02:46:13;;;;;;;177.82;30.70;;;6.40;99.90;;;;;;4968218;28;20058;-65
2022/12/21 02:48:47;;;;;;;227.65;31.58;;;6.50;99.90;;;;;;4969311;28;20046;-66
2022/12/21 02:51:19;;;;;;;193.77;28.95;;;6.30;99.90;;;;;;4968741;28;20054;-65
2022/12/21 02:53:45;;;;;;;240.55;30.88;;;6.30;99.90;;;;;;4968793;28;20059;-65
2022/12/21 02:56:16;;;;;;;195.32;29.27;;;6.50;99.90;;;;;;4968824;28;20055;-66
2022/12/21 02:58:41;;;;;;;264.25;32.83;;;6.30;99.90;;;;;;4967739;28;20466;-65
2022/12/21 03:01:51;;;;;;;212.05;27.70;;;6.40;99.90;;;;;;4968194;28;20145;-66
2022/12/21 03:04:16;;;;;;;157.23;25.35;;;6.30;99.90;;;;;;4970171;28;20054;-66
2022/12/21 03:07:00;;;;;;;185.90;26.67;;;6.30;99.90;;;;;;4977679;28;20043;-65
2022/12/21 03:09:55;;;;;;;218.43;27.40;;;6.50;99.90;;;;;;4969008;28;20133;-65
2022/12/21 03:12:27;;;;;;;153.75;25.45;;;6.30;99.90;;;;;;4967894;28;20043;-65
2022/12/21 03:15:33;;;;;;;117.22;23.52;;;6.40;99.90;;;;;;4968504;28;20149;-66
2022/12/21 03:18:17;;;;;;;101.78;20.92;;;6.30;99.90;;;;;;4987110;28;20773;-65
2022/12/21 03:21:21;;;;;;;142.68;22.92;;;6.40;99.90;;;;;;5005063;28;20046;-65
2022/12/21 03:23:55;;;;;;;191.60;25.15;;;6.30;99.90;;;;;;4967393;28;20070;-64
2022/12/21 03:26:21;;;;;;;;;;;6.50;99.90;;;;;;4968483;28;20094;-65
2022/12/21 03:28:49;;;;;;;187.15;25.98;;;6.40;99.90;;;;;;4967208;28;19918;-64
2022/12/21 03:31:23;;;;;;;253.82;27.40;;;6.30;99.90;;;;;;4967640;28;20054;-66
2022/12/21 03:33:56;;;;;;;250.83;28.77;;;6.30;99.90;;;;;;4968687;28;20050;-65
2022/12/21 03:36:30;;;;;;;211.23;25.10;;;6.30;99.90;;;;;;4968383;28;20290;-66
2022/12/21 03:39:20;;;;;;;130.38;22.08;;;6.30;99.90;;;;;;4968485;28;20043;-66
2022/12/21 03:41:50;;;;;;;115.90;20.33;;;6.30;99.90;;;;;;4968615;28;20046;-66
2022/12/21 03:44:20;;;;;;;131.40;21.40;;;6.40;99.90;;;;;;4968497;28;20486;-66
2022/12/21 03:46:59;;;;;;;249.63;25.70;;;6.50;99.90;;;;;;4967732;28;20070;-66
2022/12/21 03:49:49;;;;;;;274.48;26.60;;;6.30;99.90;;;;;;4968125;28;20488;-66
2022/12/21 03:52:18;;;;;;;256.90;25.33;;;6.30;99.90;;;;;;4967596;28;20069;-66
2022/12/21 03:54:56;;;;;;;113.70;20.45;;;6.40;99.90;;;;;;4968224;28;20143;-66
2022/12/21 03:57:24;;;;;;;179.10;23.20;;;6.50;99.90;;;;;;4968537;28;20134;-66
2022/12/21 03:59:55;;;;;;;190.40;24.77;;;6.40;99.90;;;;;;4968306;28;20437;-66
2022/12/21 04:02:36;;;;;;;195.00;23.02;;;6.20;99.90;;;;;;4970285;28;20061;-65
2022/12/21 04:05:10;;;;;;;239.82;26.60;;;6.10;99.90;;;;;;4980688;28;20104;-65
2022/12/21 04:07:39;;;;;;;177.85;21.65;;;6.20;99.90;;;;;;4973144;28;20057;-66
2022/12/21 04:10:11;;;;;;;137.50;23.20;;;6.30;99.90;;;;;;4970570;28;20054;-64
2022/12/21 04:12:37;;;;;;;249.23;26.95;;;6.40;99.90;;;;;;4971122;28;20051;-64
2022/12/21 04:15:23;;;;;;;267.60;25.27;;;6.40;99.90;;;;;;4971109;28;20046;-66
2022/12/21 04:17:50;;;;;;;96.30;20.35;;;6.20;99.90;;;;;;4971199;28;20057;-65
2022/12/21 04:20:22;;;;;;;131.73;20.20;;;6.40;99.90;;;;;;4971946;28;20043;-66
2022/12/21 04:28:30;;;;;;;87.72;18.27;;;6.20;99.90;;;;;;4972253;28;20117;-66
2022/12/21 04:30:58;;;;;;;165.82;20.55;;;6.30;99.90;;;;;;4970356;28;20125;-65
2022/12/21 04:33:25;;;;;;;119.88;18.58;;;6.10;99.90;;;;;;4971594;28;20047;-65
2022/12/21 04:38:38;;;;;;;58.78;14.45;;;6.30;99.90;;;;;;4971714;28;20057;-64
2022/12/21 04:41:05;;;;;;;47.67;11.00;;;6.20;99.90;;;;;;4954592;28;20074;-65
2022/12/21 04:43:31;;;;;;;106.70;16.45;;;6.10;99.90;;;;;;4971482;28;20394;-65
2022/12/21 04:46:01;;;;;;;97.68;16.05;;;6.30;99.90;;;;;;4970985;28;20105;-65
2022/12/21 04:48:28;;;;;;;176.10;19.05;;;6.20;99.90;;;;;;4969983;28;20085;-65
2022/12/21 04:50:53;;;;;;;214.38;20.77;;;6.20;99.90;;;;;;4969491;28;20418;-65
2022/12/21 04:53:19;;;;;;;81.10;15.02;;;6.30;99.90;;;;;;4971666;28;20055;-65
2022/12/21 04:55:47;;;;;;;80.07;14.98;;;6.20;99.90;;;;;;4971287;28;20055;-65
2022/12/21 04:58:13;;;;;;;84.55;16.00;;;6.20;99.90;;;;;;4953675;28;20447;-65
2022/12/21 05:00:39;;;;;;;77.60;15.25;;;6.10;99.90;;;;;;4969155;28;20118;-65
2022/12/21 05:03:05;;;;;;;79.75;15.48;;;6.10;99.90;;;;;;4970197;28;20391;-65
2022/12/21 05:05:30;;;;;;;190.57;19.17;;;6.00;99.90;;;;;;4982362;28;20058;-65
2022/12/21 05:07:56;;;;;;;126.28;18.38;;;6.10;99.90;;;;;;4970084;28;20062;-65
2022/12/21 05:10:22;;;;;;;155.80;20.33;;;6.10;99.90;;;;;;4971688;28;20039;-65
2022/12/21 05:12:48;;;;;;;112.07;17.27;;;6.10;99.90;;;;;;4971371;28;20046;-65
2022/12/21 05:15:16;;;;;;;76.70;16.20;;;6.10;99.90;;;;;;4953539;28;20453;-65
2022/12/21 05:17:43;;;;;;;144.57;18.63;;;6.10;99.90;;;;;;4970150;28;20050;-65
2022/12/21 05:20:08;;;;;;;91.47;17.35;;;6.10;99.90;;;;;;4971070;28;20042;-65
2022/12/21 05:22:34;;;;;;;205.82;21.80;;;6.00;99.90;;;;;;4970608;28;20053;-63
2022/12/21 05:25:00;;;;;;;83.90;16.52;;;6.20;99.90;;;;;;4970589;28;20054;-65
2022/12/21 05:27:25;;;;;;;103.68;17.60;;;6.10;99.90;;;;;;4969238;28;20050;-65
2022/12/21 05:29:51;;;;;;;75.43;19.20;;;6.10;99.90;;;;;;4971193;28;20047;-65
2022/12/21 05:32:17;;;;;;;40.20;9.98;;;6.20;99.90;;;;;;4969343;28;20049;-65
2022/12/21 05:34:42;;;;;;;90.47;15.70;;;6.00;99.90;;;;;;4970865;28;20043;-65
2022/12/21 05:37:08;;;;;;;80.78;16.35;;;6.00;99.90;;;;;;4969276;28;20133;-63
2022/12/21 05:39:34;;;;;;;133.68;18.95;;;6.10;99.90;;;;;;4968908;28;20070;-65
2022/12/21 05:42:01;;;;;;;128.52;18.73;;;6.10;99.90;;;;;;4970395;28;20049;-65
2022/12/21 05:44:27;;;;;;;57.92;13.95;;;6.00;99.90;;;;;;4970781;28;20046;-65
2022/12/21 05:46:53;;;;;;;83.57;16.70;;;6.20;99.90;;;;;;4969984;28;20113;-65
2022/12/21 05:49:19;;;;;;;79.60;16.20;;;6.10;99.90;;;;;;4968760;28;20086;-65
2022/12/21 05:51:48;;;;;;;119.80;17.67;;;6.10;99.90;;;;;;4969990;28;20085;-64
2022/12/21 05:54:17;;;;;;;113.00;17.88;;;6.10;99.90;;;;;;4970493;28;20416;-65
2022/12/21 05:56:43;;;;;;;92.30;17.50;;;6.10;99.90;;;;;;4969783;28;20130;-63
2022/12/21 05:59:09;;;;;;;97.63;17.58;;;6.00;99.90;;;;;;4968632;28;20549;-65
2022/12/21 06:01:35;;;;;;;114.95;19.42;;;6.30;99.90;;;;;;4969505;28;20046;-65
2022/12/21 06:04:02;;;;;;;123.10;19.63;;;6.40;99.90;;;;;;4972233;28;20049;-65
2022/12/21 06:06:27;;;;;;;120.30;20.33;;;6.20;99.90;;;;;;4978795;28;20388;-64
2022/12/21 06:08:53;;;;;;;90.05;17.38;;;6.20;99.90;;;;;;4970682;28;20047;-65
2022/12/21 06:11:21;;;;;;;109.95;20.92;;;6.00;99.90;;;;;;4969762;28;20046;-64
2022/12/21 06:13:48;;;;;;;130.02;19.98;;;6.20;99.90;;;;;;4970014;28;20042;-65
2022/12/21 06:16:17;;;;;;;110.25;19.23;;;6.50;99.90;;;;;;4967832;28;20088;-64
2022/12/21 06:18:43;;;;;;;118.93;20.30;;;6.10;99.90;;;;;;4969636;28;20043;-66
2022/12/21 06:21:10;;;;;;;125.80;18.83;;;6.00;99.90;;;;;;4969584;28;20136;-66
2022/12/21 06:23:37;;;;;;;144.38;20.92;;;6.20;99.90;;;;;;4969121;28;20047;-65
2022/12/21 06:26:04;;;;;;;191.50;23.95;;;6.10;99.90;;;;;;4969741;28;20057;-65
2022/12/21 06:28:30;;;;;;;93.78;19.10;;;6.10;99.90;;;;;;4969163;28;20097;-64
2022/12/21 06:31:11;;;;;;;78.28;18.77;;;6.00;99.90;;;;;;4969588;28;20051;-65
2022/12/21 06:33:38;;;;;;;168.45;23.10;;;5.90;99.90;;;;;;4968935;28;20117;-66
2022/12/21 06:36:05;;;;;;;101.32;21.45;;;6.10;99.90;;;;;;4969259;28;20497;-66
2022/12/21 06:38:31;;;;;;;207.70;24.48;;;6.00;99.90;;;;;;4967749;28;20101;-66
2022/12/21 06:41:00;;;;;;;164.85;25.10;;;6.00;99.90;;;;;;4969766;28;20504;-64
2022/12/21 06:43:28;;;;;;;220.30;25.92;;;6.00;99.90;;;;;;4969636;28;20054;-66
2022/12/21 06:46:07;;;;;;;219.02;26.67;;;6.10;99.90;;;;;;4968988;28;20071;-66
2022/12/21 06:48:34;;;;;;;201.55;26.17;;;6.00;99.90;;;;;;4969230;28;20077;-65
2022/12/21 06:51:03;;;;;;;224.50;27.48;;;5.90;99.90;;;;;;4968634;28;20055;-64
2022/12/21 06:53:31;;;;;;;246.07;28.55;;;6.00;99.90;;;;;;4969460;28;20071;-64
2022/12/21 06:56:02;;;;;;;184.70;25.52;;;6.10;99.90;;;;;;4969081;28;20050;-65
2022/12/21 06:58:28;;;;;;;196.50;26.88;;;6.20;99.90;;;;;;4969188;28;20051;-66
2022/12/21 07:00:54;;;;;;;235.43;29.00;;;6.10;99.90;;;;;;4968100;28;20053;-66
2022/12/21 07:03:20;;;;;;;373.63;33.22;;;6.30;99.90;;;;;;4969034;28;20051;-65
2022/12/21 07:05:46;;;;;;;151.90;26.02;;;6.20;99.90;;;;;;4979614;28;20513;-65
2022/12/21 07:08:11;;;;;;;199.82;28.42;;;6.20;99.90;;;;;;4969152;28;20047;-65
2022/12/21 07:10:38;;;;;;;228.13;31.08;;;6.10;99.90;;;;;;4968399;28;20049;-66
2022/12/21 07:13:04;;;;;;;245.40;32.15;;;6.30;99.90;;;;;;4968785;28;20050;-66
2022/12/21 07:15:34;;;;;;;200.20;29.95;;;6.40;99.90;;;;;;4966785;28;20041;-64
2022/12/21 07:18:00;;;;;;;207.43;29.92;;;6.20;99.90;;;;;;4968605;28;20053;-65
2022/12/21 07:20:26;;;;;;;303.25;34.80;;;6.10;99.90;;;;;;4968606;28;20070;-66
2022/12/21 07:22:51;;;;;;;193.40;30.88;;;6.10;99.90;;;;;;4968535;28;20137;-66
2022/12/21 07:25:17;;;;;;;208.13;31.55;;;6.10;99.90;;;;;;4968795;28;20047;-66
2022/12/21 07:27:43;;;;;;;174.50;28.42;;;6.10;99.90;;;;;;4968385;28;20051;-64
2022/12/21 07:30:09;;;;;;;165.85;28.52;;;6.20;99.90;;;;;;4968235;28;20102;-66
2022/12/21 07:32:35;;;;;;;266.42;33.97;;;6.30;99.90;;;;;;4968160;28;20054;-66
2022/12/21 07:35:01;;;;;;;270.65;35.72;;;6.20;99.90;;;;;;4967981;28;20125;-63
2022/12/21 07:37:26;;;;;;;262.98;35.90;;;6.20;99.90;;;;;;4968382;28;20064;-66
2022/12/21 07:39:52;;;;;;;241.75;34.25;;;6.40;99.90;;;;;;4968071;28;20039;-66
2022/12/21 07:42:17;;;;;;;223.88;34.08;;;6.40;99.90;;;;;;4968771;28;20043;-64
2022/12/21 07:44:43;;;;;;;250.75;34.58;;;6.30;99.90;;;;;;4967888;28;20085;-66
2022/12/21 07:47:09;;;;;;;284.33;38.17;;;6.50;99.90;;;;;;4967431;28;20050;-65
2022/12/21 07:49:34;;;;;;;331.63;40.45;;;6.30;99.90;;;;;;4968349;28;20047;-66
2022/12/21 07:52:00;;;;;;;259.48;38.92;;;6.50;99.90;;;;;;4967474;28;20177;-65
2022/12/21 07:54:26;;;;;;;216.38;36.72;;;6.30;99.90;;;;;;4967830;28;20050;-67
2022/12/21 07:56:52;;;;;;;207.68;35.28;;;6.50;99.90;;;;;;4967996;28;20560;-63
2022/12/21 07:59:18;;;;;;;171.82;33.28;;;6.50;99.90;;;;;;4967928;28;20046;-66
2022/12/21 08:01:44;;;;;;;214.32;37.97;;;6.50;99.90;;;;;;4967240;28;20039;-66
2022/12/21 08:04:10;;;;;;;219.63;36.97;;;6.40;99.90;;;;;;4970064;28;20418;-66
2022/12/21 08:06:36;;;;;;;238.68;37.60;;;6.60;99.90;;;;;;4975533;28;20149;-66
2022/12/21 08:09:02;;;;;;;246.35;38.97;;;6.30;99.90;;;;;;4968446;28;20034;-65
2022/12/21 08:11:29;;;;;;;215.60;38.05;;;6.60;99.90;;;;;;4976306;28;20046;-63
2022/12/21 08:13:56;;;;;;;157.27;33.35;;;6.40;99.90;;;;;;4978685;28;20089;-65
2022/12/21 08:16:22;;;;;;;185.10;35.80;;;6.40;99.90;;;;;;4974407;28;20039;-66
2022/12/21 08:18:48;;;;;;;153.35;31.30;;;6.60;99.90;;;;;;4977118;28;20100;-65
2022/12/21 08:21:15;;;;;;;228.57;39.22;;;6.40;99.90;;;;;;4978278;28;20050;-65
2022/12/21 08:23:42;;;;;;;217.68;36.63;;;6.60;99.90;;;;;;4976888;28;20039;-65
2022/12/21 08:26:10;;;;;;;189.18;37.28;;;6.40;99.90;;;;;;4978598;28;20081;-65
2022/12/21 08:28:36;;;;;;;157.65;33.85;;;6.70;99.90;;;;;;4978669;28;20081;-65
2022/12/21 08:31:12;;;;;;;183.95;36.13;;;6.70;99.90;;;;;;4976840;28;20035;-66
2022/12/21 08:33:41;;;;;;;178.27;36.28;;;6.50;99.90;;;;;;4976303;28;20123;-66
2022/12/21 08:36:14;;;;;;;175.80;37.58;;;6.40;99.90;;;;;;4977029;28;20085;-65
2022/12/21 08:38:40;;;;;;;185.18;38.40;;;6.50;99.90;;;;;;4975325;28;20082;-66
2022/12/21 08:41:05;;;;;;;179.90;38.67;;;6.70;99.90;;;;;;4977074;28;20101;-66
2022/12/21 08:43:34;;;;;;;177.68;38.13;;;6.50;99.90;;;;;;4976780;28;20097;-66
2022/12/21 08:46:03;;;;;;;152.05;32.97;;;6.70;99.90;;;;;;4969337;28;20043;-66
2022/12/21 08:48:29;;;;;;;162.68;35.08;;;6.70;99.90;;;;;;4971467;28;20050;-64
2022/12/21 08:50:55;;;;;;;166.85;35.78;;;6.80;99.90;;;;;;4971408;28;20066;-64
2022/12/21 08:53:20;;;;;;;171.02;37.75;;;6.80;99.90;;;;;;4977820;28;20144;-65
2022/12/21 08:55:48;;;;;;;182.77;38.67;;;6.80;99.90;;;;;;4990129;28;20046;-65
2022/12/21 08:58:13;;;;;;;171.00;37.10;;;6.80;99.90;;;;;;4990628;28;20046;-65
2022/12/21 09:00:39;;;;;;;186.30;38.65;;;6.50;99.90;;;;;;4989387;28;20054;-65
2022/12/21 09:03:06;;;;;;;192.18;39.35;;;6.50;99.90;;;;;;4983674;28;20047;-63
2022/12/21 09:05:32;;;;;;;181.68;37.28;;;6.80;99.90;;;;;;4983409;28;20110;-65
2022/12/21 09:07:59;;;;;;;169.93;35.47;;;6.50;99.90;;;;;;4990763;28;20054;-66
2022/12/21 09:10:25;;;;;;;152.57;32.13;;;6.80;99.90;;;;;;4973183;28;20045;-66
2022/12/21 09:12:51;;;;;;;188.15;37.65;;;6.60;99.90;;;;;;4971328;28;20058;-66
2022/12/21 09:15:16;;;;;;;184.25;35.75;;;6.60;99.90;;;;;;4969299;28;20043;-65
2022/12/21 09:17:42;;;;;;;149.43;33.03;;;6.70;99.90;;;;;;4971006;28;20086;-66
2022/12/21 09:20:09;;;;;;;148.30;33.42;;;6.50;99.90;;;;;;4970155;28;20039;-67
2022/12/21 09:22:34;;;;;;;143.20;34.42;;;6.50;99.90;;;;;;4970659;28;20046;-67
2022/12/21 09:25:00;;;;;;;138.90;32.38;;;6.80;99.90;;;;;;4976433;28;20114;-65
2022/12/21 09:27:26;;;;;;;158.43;33.92;;;6.70;99.90;;;;;;4978540;28;20039;-67
2022/12/21 09:29:52;;;;;;;151.77;33.90;;;6.60;99.90;;;;;;4980413;28;20038;-67
2022/12/21 09:32:17;;;;;;;121.18;28.13;;;6.50;99.90;;;;;;4978727;28;20039;-66
2022/12/21 09:34:43;;;;;;;128.13;29.52;;;6.80;99.90;;;;;;4979558;28;20094;-65
2022/12/21 09:37:08;;;;;;;121.38;29.33;;;6.90;99.90;;;;;;4979515;28;20051;-66
2022/12/21 09:39:34;;;;;;;113.10;29.63;;;6.60;99.90;;;;;;4986927;28;20058;-67
2022/12/21 09:42:31;;;;;;;119.72;31.20;;;6.80;99.90;;;;;;4987432;28;20054;-66
2022/12/21 09:45:09;;;;;;;101.95;26.52;;;6.80;99.90;;;;;;4979122;28;20049;-66
2022/12/21 09:47:53;;;;;;;116.60;30.25;;;6.70;99.90;;;;;;4978821;28;20069;-66
2022/12/21 09:50:22;;;;;;;109.13;31.33;;;6.50;99.90;;;;;;4979173;28;20074;-67
2022/12/21 09:52:58;;;;;;;130.20;32.90;;;6.90;99.90;;;;;;4978345;28;20046;-64
2022/12/21 09:55:27;;;;;;;76.65;20.67;;;7.00;99.90;;;;;;4978845;28;20050;-66
2022/12/21 09:57:54;;;;;;;90.18;28.27;;;6.90;99.90;;;;;;4977383;28;20096;-66
2022/12/21 10:00:24;;;;;;;110.68;32.50;;;6.80;99.90;;;;;;4970191;28;20493;-64
2022/12/21 10:03:14;;;;;;;102.20;30.35;;;6.80;99.90;;;;;;4972361;28;20073;-63
2022/12/21 10:06:01;;;;;;;103.38;32.40;;;7.10;99.90;;;;;;4976343;28;20445;-65
2022/12/21 10:08:39;;;;;;;98.80;30.02;;;7.10;99.90;;;;;;4989472;28;20046;-63
2022/12/21 10:11:28;;;;;;;91.63;31.27;;;7.20;99.90;;;;;;4989188;28;20042;-64
2022/12/21 10:14:14;;;;;;;110.03;31.75;;;6.90;99.90;;;;;;4988590;28;20494;-64
2022/12/21 10:17:14;;;;;;;105.25;33.72;;;6.90;99.90;;;;;;4989275;28;20081;-63
2022/12/21 10:20:04;;;;;;;94.03;31.13;;;7.10;99.90;;;;;;4987859;28;20092;-64
2022/12/21 10:22:33;;;;;;;113.68;33.08;;;6.80;99.90;;;;;;4988503;28;20046;-63
2022/12/21 10:25:03;;;;;;;96.00;32.20;;;7.10;99.90;;;;;;4989222;28;20057;-63
2022/12/21 10:27:39;;;;;;;138.43;50.65;;;7.00;99.90;;;;;;4988297;28;20054;-63
2022/12/21 10:30:11;;;;;;;107.03;33.63;;;7.30;99.90;;;;;;4989209;28;20449;-63
2022/12/21 10:32:38;;;;;;;107.15;35.67;;;7.00;99.90;;;;;;4988973;28;20049;-63
2022/12/21 10:35:24;;;;;;;98.40;32.90;;;7.30;99.90;;;;;;4988343;28;20121;-64
2022/12/21 10:37:53;;;;;;;94.82;31.50;;;7.40;99.90;;;;;;4987419;28;20057;-63
2022/12/21 10:40:25;;;;;;;78.85;28.42;;;7.20;99.90;;;;;;4988374;28;20459;-64
2022/12/21 10:42:53;;;;;;;95.47;33.70;;;7.10;99.90;;;;;;4988016;28;20125;-63
2022/12/21 10:45:21;;;;;;;78.13;29.75;;;7.20;99.90;;;;;;4988747;28;20049;-64
2022/12/21 10:47:47;;;;;;;96.82;35.10;;;7.10;99.90;;;;;;4987971;28;20061;-64
2022/12/21 10:50:15;;;;;;;95.45;35.92;;;7.10;99.90;;;;;;4988408;28;20497;-64
2022/12/21 10:52:52;;;;;;;100.32;35.67;;;7.60;99.90;;;;;;4988898;28;20050;-63
2022/12/21 10:55:18;;;;;;;96.90;34.92;;;7.40;99.90;;;;;;4988015;28;20766;-63
2022/12/21 10:57:50;;;;;;;104.70;36.95;;;7.60;99.90;;;;;;4987256;28;20129;-64
2022/12/21 11:00:22;;;;;;;86.43;31.88;;;7.30;99.90;;;;;;4987945;28;20454;-63
2022/12/21 11:02:49;;;;;;;90.47;33.58;;;7.20;99.90;;;;;;4987733;28;20128;-63
2022/12/21 11:05:35;;;;;;;85.88;33.95;;;7.60;99.90;;;;;;4981487;28;20066;-64
2022/12/21 11:08:13;;;;;;;81.30;33.03;;;7.60;99.90;;;;;;4968452;28;20051;-64
2022/12/21 11:10:41;;;;;;;80.07;33.20;;;7.60;99.90;;;;;;4968722;28;20050;-63
2022/12/21 11:13:07;;;;;;;62.22;26.20;;;7.60;99.90;;;;;;4966698;28;20398;-64
2022/12/21 11:15:33;;;;;;;61.75;29.80;;;7.70;99.90;;;;;;4966961;28;20039;-63
2022/12/21 11:18:00;;;;;;;51.25;24.73;;;8.10;99.90;;;;;;4968271;28;20047;-64
2022/12/21 11:20:27;;;;;;;59.53;27.85;;;8.00;99.90;;;;;;4968308;28;20035;-64
2022/12/21 11:22:55;;;;;;;54.22;26.88;;;7.80;99.90;;;;;;4982383;28;20051;-63
2022/12/21 11:25:27;;;;;;;57.03;27.30;;;8.30;99.90;;;;;;4967908;28;20378;-63
2022/12/21 11:28:02;;;;;;;57.15;27.65;;;8.40;99.90;;;;;;4967379;28;20042;-64
2022/12/21 11:30:34;;;;;;;51.45;25.48;;;9.00;99.90;;;;;;4966515;28;20110;-63
2022/12/21 11:33:01;;;;;;;45.85;21.40;;;8.80;99.90;;;;;;4967839;28;20049;-63
2022/12/21 11:35:29;;;;;;;47.28;22.75;;;9.20;99.90;;;;;;4965930;28;20524;-63
2022/12/21 11:38:08;;;;;;;43.58;18.98;;;9.00;99.90;;;;;;4966191;28;20058;-63
2022/12/21 11:40:34;;;;;;;42.17;20.98;;;8.80;99.90;;;;;;4966309;28;20109;-64
2022/12/21 11:42:59;;;;;;;42.88;22.23;;;8.90;99.90;;;;;;4966552;28;20046;-64
2022/12/21 11:45:59;;;;;;;40.97;21.05;;;9.40;99.90;;;;;;4967547;28;20049;-60
2022/12/21 11:48:36;;;;;;;43.75;22.65;;;9.30;99.90;;;;;;4967170;28;20054;-68
2022/12/21 11:51:26;;;;;;;40.92;21.83;;;9.40;99.90;;;;;;4965923;28;20454;-69
2022/12/21 11:54:24;;;;;;;36.63;20.77;;;9.50;99.90;;;;;;4967317;28;20058;-68
2022/12/21 11:56:56;;;;;;;37.25;19.42;;;9.80;99.90;;;;;;4965893;28;20138;-68
2022/12/21 11:59:33;;;;;;;36.60;20.60;;;9.70;99.90;;;;;;4966856;28;20054;-68
2022/12/21 12:02:38;;;;;;;37.63;18.95;;;9.90;99.90;;;;;;4966646;28;20051;-68
2022/12/21 12:05:06;;;;;;;34.28;19.02;;;9.60;99.90;;;;;;4975508;28;20057;-69
2022/12/21 12:07:47;;;;;;;36.95;19.38;;;9.60;99.90;;;;;;4969064;28;20053;-69
2022/12/21 12:10:55;;;;;;;34.85;18.75;;;9.50;99.90;;;;;;4967574;28;20061;-68
2022/12/21 12:13:54;;;;;;;39.70;19.70;;;9.40;99.90;;;;;;4965207;28;20086;-68
2022/12/21 12:16:42;;;;;;;38.63;20.63;;;9.40;99.90;;;;;;4967589;28;20061;-68
2022/12/21 12:19:38;;;;;;;38.95;20.15;;;9.30;99.90;;;;;;4965641;28;20383;-68
2022/12/21 12:22:07;;;;;;;40.95;19.20;;;9.10;99.90;;;;;;4967634;28;20133;-68
2022/12/21 12:24:45;;;;;;;35.80;20.00;;;9.10;99.90;;;;;;4971217;28;20051;-68
2022/12/21 12:27:19;;;;;;;40.92;20.95;;;9.10;99.90;;;;;;4970394;28;20139;-70
2022/12/21 12:30:02;;;;;;;44.45;21.38;;;8.90;99.90;;;;;;4971589;28;20097;-68
2022/12/21 12:32:58;;;;;;;42.17;20.38;;;9.00;99.90;;;;;;4971110;28;20087;-68
2022/12/21 12:35:53;;;;;;;44.22;21.98;;;9.00;99.90;;;;;;4970957;28;20055;-69
2022/12/21 12:38:22;;;;;;;40.53;21.70;;;9.10;99.90;;;;;;4970942;28;20106;-69
2022/12/21 12:40:53;;;;;;;42.67;20.73;;;9.10;99.90;;;;;;4969805;28;20391;-68
2022/12/21 12:43:43;;;;;;;43.28;21.85;;;9.20;99.90;;;;;;4970067;28;20054;-69
2022/12/21 12:46:21;;;;;;;44.90;21.60;;;9.00;99.90;;;;;;4970903;28;20066;-68
2022/12/21 12:49:05;;;;;;;43.33;21.83;;;9.10;99.90;;;;;;4975079;28;20130;-68
2022/12/21 12:52:02;;;;;;;43.72;21.55;;;9.00;99.90;;;;;;4980226;28;20153;-69
2022/12/21 12:54:50;;;;;;;51.15;21.80;;;8.90;99.90;;;;;;4978672;28;20054;-69
2022/12/21 12:57:48;;;;;;;42.40;22.52;;;8.70;99.90;;;;;;4970216;28;20050;-67
2022/12/21 13:00:16;;;;;;;50.53;23.80;;;8.70;99.90;;;;;;4986488;28;20074;-70
2022/12/21 13:03:07;;;;;;;43.90;21.65;;;8.90;99.90;;;;;;4990153;28;20053;-69
2022/12/21 13:05:51;;;;;;;48.08;21.33;;;8.70;99.90;;;;;;4981589;28;20046;-69